Time;durP1;ratioP1;P1;durP2;ratioP2;P2;SDS_P1;SDS_P2;PMS_P1;PMS_P2;Temp;Humidity;BMP_temperature;BMP_pressure;BME280_temperature;BME280_humidity;BME280_pressure;Samples;Min_cycle;Max_cycle;Signal;HPM_P1;HPM_P2
2022/12/08 00:02:58;;;;;;;32.63;18.63;;;;;;;;;;6237052;28;20036;-73
2022/12/08 00:09:24;;;;;;;32.25;16.52;;;;;;;;;;6233368;28;20026;-72
2022/12/08 00:12:25;;;;;;;35.80;17.08;;;;;;;;;;6234038;28;20508;-72
2022/12/08 00:15:25;;;;;;;35.80;18.93;;;;;;;;;;6237372;28;20071;-73
2022/12/08 00:18:25;;;;;;;33.57;17.07;;;;;;;;;;6237774;28;20424;-72
2022/12/08 00:21:25;;;;;;;34.60;19.30;;;;;;;;;;6235807;28;20022;-72
2022/12/08 00:24:29;;;;;;;41.23;18.73;;;;;;;;;;6234111;28;20014;-74
2022/12/08 00:27:29;;;;;;;34.13;15.55;;;;;;;;;;6237155;28;20014;-72
2022/12/08 00:30:29;;;;;;;34.60;16.67;;;;;;;;;;6232623;28;20446;-72
2022/12/08 00:33:29;;;;;;;29.65;14.90;;;;;;;;;;6238055;28;20026;-72
2022/12/08 00:36:30;;;;;;;41.15;16.48;;;;;;;;;;6233416;28;20283;-74
2022/12/08 00:39:30;;;;;;;31.13;16.97;;;;;;;;;;6233931;28;20310;-73
2022/12/08 00:42:30;;;;;;;34.07;19.43;;;;;;;;;;6236356;28;20385;-74
2022/12/08 00:45:30;;;;;;;38.67;19.23;;;;;;;;;;6236235;28;20013;-73
2022/12/08 00:48:31;;;;;;;36.42;18.60;;;;;;;;;;6237304;28;20014;-73
2022/12/08 00:51:31;;;;;;;41.40;21.43;;;;;;;;;;6249406;28;20511;-74
2022/12/08 00:54:31;;;;;;;32.60;17.93;;;;;;;;;;6244960;28;20013;-74
2022/12/08 00:57:32;;;;;;;32.85;16.63;;;;;;;;;;6241746;28;20049;-73
2022/12/08 01:00:32;;;;;;;33.77;17.50;;;;;;;;;;6241860;28;20036;-73
2022/12/08 01:03:32;;;;;;;33.63;18.80;;;;;;;;;;6239519;28;20025;-73
2022/12/08 01:06:36;;;;;;;36.22;18.77;;;;;;;;;;6239108;28;20021;-73
2022/12/08 01:09:36;;;;;;;36.22;19.73;;;;;;;;;;6240292;28;20477;-73
2022/12/08 01:12:36;;;;;;;36.47;18.27;;;;;;;;;;6239709;28;20144;-73
2022/12/08 01:15:36;;;;;;;38.90;19.30;;;;;;;;;;6239547;28;20087;-73
2022/12/08 01:18:37;;;;;;;37.90;18.38;;;;;;;;;;6246789;28;20024;-74
2022/12/08 01:21:37;;;;;;;29.30;15.07;;;;;;;;;;6238092;28;20503;-73
2022/12/08 01:24:37;;;;;;;33.33;16.43;;;;;;;;;;6242083;28;20013;-73
2022/12/08 01:27:37;;;;;;;37.30;15.70;;;;;;;;;;6246447;28;20082;-73
2022/12/08 01:30:38;;;;;;;33.63;16.25;;;;;;;;;;6239157;28;20067;-75
2022/12/08 01:33:39;;;;;;;36.83;16.90;;;;;;;;;;6239292;28;20501;-73
2022/12/08 01:36:40;;;;;;;36.93;19.73;;;;;;;;;;6241326;28;20014;-72
2022/12/08 01:39:41;;;;;;;41.65;19.35;;;;;;;;;;6234775;28;20021;-73
2022/12/08 01:42:41;;;;;;;39.63;19.43;;;;;;;;;;6236999;28;20104;-73
2022/12/08 01:45:41;;;;;;;40.33;20.13;;;;;;;;;;6240208;28;20018;-74
2022/12/08 01:48:42;;;;;;;39.80;21.03;;;;;;;;;;6244407;28;20288;-73
2022/12/08 01:51:42;;;;;;;38.03;18.37;;;;;;;;;;6238102;28;20318;-74
2022/12/08 01:54:51;;;;;;;32.50;18.90;;;;;;;;;;6241770;28;20030;-74
2022/12/08 01:57:55;;;;;;;38.65;19.80;;;;;;;;;;6225022;28;20054;-74
2022/12/08 02:00:55;;;;;;;36.78;18.92;;;;;;;;;;6240641;28;20022;-73
2022/12/08 02:04:00;;;;;;;40.97;18.17;;;;;;;;;;6240340;28;20440;-74
2022/12/08 02:07:01;;;;;;;35.30;17.85;;;;;;;;;;6240451;28;20018;-74
2022/12/08 02:10:02;;;;;;;30.33;13.93;;;;;;;;;;6234837;28;20385;-74
2022/12/08 02:13:03;;;;;;;31.00;16.20;;;;;;;;;;6238114;28;20021;-74
2022/12/08 02:16:22;;;;;;;35.10;17.40;;;;;;;;;;6240448;28;20108;-75
2022/12/08 02:19:22;;;;;;;33.35;16.48;;;;;;;;;;6239003;28;20171;-74
2022/12/08 02:22:42;;;;;;;34.30;17.77;;;;;;;;;;6239509;28;20033;-74
2022/12/08 02:25:45;;;;;;;33.22;15.38;;;;;;;;;;6232521;28;20025;-74
2022/12/08 02:28:57;;;;;;;33.95;16.77;;;;;;;;;;6237773;28;20041;-74
2022/12/08 02:31:57;;;;;;;;;;;;;;;;;;6238145;28;20044;-74
2022/12/08 02:35:06;;;;;;;31.33;15.23;;;;;;;;;;6238781;28;19974;-74
2022/12/08 02:38:12;;;;;;;29.67;16.17;;;;;;;;;;6234454;28;20087;-75
2022/12/08 02:41:31;;;;;;;29.35;14.15;;;;;;;;;;6233454;28;20075;-74
2022/12/08 02:44:38;;;;;;;32.15;16.02;;;;;;;;;;6229871;28;20029;-74
2022/12/08 02:47:38;;;;;;;35.65;16.95;;;;;;;;;;6237247;28;20013;-73
2022/12/08 02:50:39;;;;;;;34.47;18.50;;;;;;;;;;6235739;28;20081;-74
2022/12/08 02:53:39;;;;;;;35.73;18.43;;;;;;;;;;6239984;28;20444;-75
2022/12/08 02:56:58;;;;;;;31.50;17.20;;;;;;;;;;6235383;28;20017;-74
2022/12/08 03:00:07;;;;;;;27.00;16.23;;;;;;;;;;6235707;28;20095;-74
2022/12/08 03:03:26;;;;;;;29.92;16.70;;;;;;;;;;6237171;28;20052;-74
2022/12/08 03:06:31;;;;;;;32.25;17.80;;;;;;;;;;6236870;28;20127;-74
2022/12/08 03:09:37;;;;;;;27.02;16.45;;;;;;;;;;6236648;28;20456;-74
2022/12/08 03:12:43;;;;;;;32.63;19.08;;;;;;;;;;6236590;28;20120;-74
2022/12/08 03:15:46;;;;;;;32.13;17.35;;;;;;;;;;6238505;28;20022;-74
2022/12/08 03:18:48;;;;;;;32.45;17.80;;;;;;;;;;6244116;28;20036;-74
2022/12/08 03:21:51;;;;;;;28.10;14.50;;;;;;;;;;6242716;28;20135;-74
2022/12/08 03:24:51;;;;;;;31.58;15.15;;;;;;;;;;6245575;28;20543;-74
2022/12/08 03:27:52;;;;;;;31.63;18.83;;;;;;;;;;6236922;28;20173;-73
2022/12/08 03:30:54;;;;;;;27.47;15.03;;;;;;;;;;6236642;28;20120;-74
2022/12/08 03:33:55;;;;;;;30.50;17.70;;;;;;;;;;6236923;28;20373;-74
2022/12/08 03:36:56;;;;;;;30.30;15.77;;;;;;;;;;6235574;28;20021;-74
2022/12/08 03:39:56;;;;;;;30.33;17.13;;;;;;;;;;6235894;28;20029;-73
2022/12/08 03:42:56;;;;;;;39.33;18.37;;;;;;;;;;6236814;28;20064;-73
2022/12/08 03:45:56;;;;;;;36.30;19.47;;;;;;;;;;6237317;28;20052;-73
2022/12/08 03:48:57;;;;;;;32.33;18.65;;;;;;;;;;6237521;28;20111;-74
2022/12/08 03:51:57;;;;;;;35.25;18.25;;;;;;;;;;6232590;28;20757;-73
2022/12/08 03:54:57;;;;;;;29.95;16.35;;;;;;;;;;6232987;28;20033;-73
2022/12/08 03:57:57;;;;;;;33.25;16.45;;;;;;;;;;6237648;28;20573;-73
2022/12/08 04:00:57;;;;;;;33.27;18.47;;;;;;;;;;6239814;28;20036;-73
2022/12/08 04:03:57;;;;;;;29.50;16.90;;;;;;;;;;6240437;28;20032;-73
2022/12/08 04:06:58;;;;;;;29.13;15.23;;;;;;;;;;6237621;28;20017;-73
2022/12/08 04:09:58;;;;;;;31.40;16.23;;;;;;;;;;6231903;28;20018;-72
2022/12/08 04:12:58;;;;;;;43.00;20.08;;;;;;;;;;6236773;28;20031;-73
2022/12/08 04:15:58;;;;;;;38.38;21.00;;;;;;;;;;6235735;28;20071;-73
2022/12/08 04:18:58;;;;;;;34.08;19.73;;;;;;;;;;6239425;28;20017;-73
2022/12/08 04:21:58;;;;;;;40.35;21.65;;;;;;;;;;6236576;28;20687;-74
2022/12/08 04:24:59;;;;;;;35.27;20.80;;;;;;;;;;6242609;28;20060;-73
2022/12/08 04:27:59;;;;;;;32.03;19.13;;;;;;;;;;6243094;28;20045;-73
2022/12/08 04:30:59;;;;;;;33.60;17.77;;;;;;;;;;6241937;28;20025;-73
2022/12/08 04:33:59;;;;;;;29.90;15.63;;;;;;;;;;6250602;28;20116;-73
2022/12/08 04:37:00;;;;;;;33.67;14.80;;;;;;;;;;6241086;28;20100;-74
2022/12/08 04:40:00;;;;;;;32.93;15.87;;;;;;;;;;6241545;28;20021;-73
2022/12/08 04:43:00;;;;;;;34.93;15.60;;;;;;;;;;6244154;28;20026;-73
2022/12/08 04:46:00;;;;;;;31.60;15.27;;;;;;;;;;6244457;28;20014;-73
2022/12/08 04:49:00;;;;;;;31.57;15.57;;;;;;;;;;6240057;28;20115;-72
2022/12/08 04:52:00;;;;;;;36.97;15.07;;;;;;;;;;6239295;28;20024;-74
2022/12/08 04:55:01;;;;;;;37.90;17.70;;;;;;;;;;6248885;28;20100;-73
2022/12/08 04:58:01;;;;;;;33.73;16.63;;;;;;;;;;6228374;28;20446;-73
2022/12/08 05:01:01;;;;;;;30.67;16.63;;;;;;;;;;6234541;28;20386;-73
2022/12/08 05:04:01;;;;;;;33.17;18.00;;;;;;;;;;6239206;28;20151;-74
2022/12/08 05:07:01;;;;;;;33.70;18.97;;;;;;;;;;6241297;28;20069;-74
2022/12/08 05:10:02;;;;;;;44.17;20.70;;;;;;;;;;6235096;28;20009;-73
2022/12/08 05:13:02;;;;;;;28.33;16.90;;;;;;;;;;6222854;28;20401;-74
2022/12/08 05:16:04;;;;;;;34.90;17.63;;;;;;;;;;6240017;28;20017;-74
2022/12/08 05:19:04;;;;;;;31.42;17.98;;;;;;;;;;6244201;28;20385;-74
2022/12/08 05:22:04;;;;;;;43.70;27.97;;;;;;;;;;6234489;28;20084;-73
2022/12/08 05:25:04;;;;;;;43.15;19.88;;;;;;;;;;6228226;28;20025;-73
2022/12/08 05:28:05;;;;;;;38.57;17.93;;;;;;;;;;6224925;28;20513;-74
2022/12/08 05:31:05;;;;;;;43.33;18.90;;;;;;;;;;6225579;28;20012;-74
2022/12/08 05:34:05;;;;;;;34.60;19.25;;;;;;;;;;6238625;28;20021;-73
2022/12/08 05:37:05;;;;;;;29.35;14.38;;;;;;;;;;6238518;28;20089;-73
2022/12/08 05:40:06;;;;;;;52.97;29.67;;;;;;;;;;6234444;28;20300;-74
2022/12/08 05:43:06;;;;;;;42.73;23.40;;;;;;;;;;6216053;28;20104;-73
2022/12/08 05:46:07;;;;;;;37.92;20.08;;;;;;;;;;6227146;28;20040;-73
2022/12/08 05:49:07;;;;;;;42.33;20.13;;;;;;;;;;6233822;28;20047;-73
2022/12/08 05:52:07;;;;;;;44.90;23.00;;;;;;;;;;6238746;28;20028;-73
2022/12/08 05:55:08;;;;;;;76.00;34.87;;;;;;;;;;6234525;28;20669;-73
2022/12/08 05:58:19;;;;;;;55.67;25.97;;;;;;;;;;6226698;28;20352;-73
2022/12/08 06:01:27;;;;;;;77.78;39.05;;;;;;;;;;6237064;28;20079;-73
2022/12/08 06:04:27;;;;;;;55.10;27.30;;;;;;;;;;6236764;28;20014;-73
2022/12/08 06:07:27;;;;;;;48.43;22.40;;;;;;;;;;6237599;28;20071;-73
2022/12/08 06:10:27;;;;;;;41.30;22.00;;;;;;;;;;6230293;28;20029;-73
2022/12/08 06:13:27;;;;;;;39.13;22.23;;;;;;;;;;6228074;28;20556;-73
2022/12/08 06:16:28;;;;;;;53.30;30.23;;;;;;;;;;6241270;28;20039;-73
2022/12/08 06:19:28;;;;;;;63.23;32.60;;;;;;;;;;6236407;28;20329;-74
2022/12/08 06:22:29;;;;;;;52.57;26.03;;;;;;;;;;6238115;28;20025;-73
2022/12/08 06:25:29;;;;;;;32.50;18.17;;;;;;;;;;6236284;28;20218;-73
2022/12/08 06:28:30;;;;;;;40.77;21.43;;;;;;;;;;6237902;28;20009;-73
2022/12/08 06:31:30;;;;;;;61.10;36.67;;;;;;;;;;6234140;28;20028;-73
2022/12/08 06:34:30;;;;;;;33.97;17.07;;;;;;;;;;6239246;28;20017;-73
2022/12/08 06:37:30;;;;;;;36.63;17.87;;;;;;;;;;6236712;28;20221;-73
2022/12/08 06:40:31;;;;;;;34.13;18.87;;;;;;;;;;6228429;28;20056;-73
2022/12/08 06:43:32;;;;;;;26.42;14.82;;;;;;;;;;6233522;28;20229;-73
2022/12/08 06:46:32;;;;;;;32.63;18.30;;;;;;;;;;6238750;28;20576;-73
2022/12/08 06:49:32;;;;;;;35.73;21.83;;;;;;;;;;6221908;28;20014;-73
2022/12/08 06:52:32;;;;;;;58.10;28.48;;;;;;;;;;6238772;28;20065;-72
2022/12/08 06:55:32;;;;;;;43.17;22.80;;;;;;;;;;6231869;28;20148;-73
2022/12/08 06:58:33;;;;;;;43.27;20.90;;;;;;;;;;6239809;28;20045;-74
2022/12/08 07:01:33;;;;;;;41.00;21.67;;;;;;;;;;6235742;28;20025;-72
2022/12/08 07:04:33;;;;;;;62.20;35.13;;;;;;;;;;6234676;28;20021;-73
2022/12/08 07:07:33;;;;;;;58.87;29.90;;;;;;;;;;6240803;28;20025;-73
2022/12/08 07:10:34;;;;;;;73.45;36.58;;;;;;;;;;6239347;28;20540;-72
2022/12/08 07:13:34;;;;;;;46.00;23.80;;;;;;;;;;6224948;28;20014;-73
2022/12/08 07:16:34;;;;;;;68.17;29.47;;;;;;;;;;6240178;28;20017;-73
2022/12/08 07:19:34;;;;;;;47.60;25.23;;;;;;;;;;6239097;28;20605;-73
2022/12/08 07:22:35;;;;;;;41.03;22.15;;;;;;;;;;6237510;28;20048;-73
2022/12/08 07:25:35;;;;;;;39.53;22.33;;;;;;;;;;6237584;28;20104;-73
2022/12/08 07:28:36;;;;;;;41.97;22.87;;;;;;;;;;6236762;28;20009;-73
2022/12/08 07:31:36;;;;;;;38.60;20.13;;;;;;;;;;6236082;28;20029;-73
2022/12/08 07:34:37;;;;;;;30.53;18.33;;;;;;;;;;6239413;28;20037;-73
2022/12/08 07:37:37;;;;;;;37.90;21.67;;;;;;;;;;6239849;28;20013;-73
2022/12/08 07:40:38;;;;;;;30.07;17.40;;;;;;;;;;6226720;28;20367;-74
2022/12/08 07:43:38;;;;;;;33.43;19.70;;;;;;;;;;6238731;28;20052;-73
2022/12/08 07:46:38;;;;;;;37.83;22.10;;;;;;;;;;6229327;28;20132;-73
2022/12/08 07:49:38;;;;;;;45.40;24.77;;;;;;;;;;6230015;28;20025;-73
2022/12/08 07:52:38;;;;;;;57.23;29.60;;;;;;;;;;6237747;28;20013;-73
2022/12/08 07:55:39;;;;;;;53.93;32.03;;;;;;;;;;6235737;28;20503;-73
2022/12/08 07:58:40;;;;;;;61.70;35.23;;;;;;;;;;6235692;28;20504;-73
2022/12/08 08:01:40;;;;;;;91.57;52.67;;;;;;;;;;6239030;28;20024;-73
2022/12/08 08:04:40;;;;;;;53.83;29.80;;;;;;;;;;6228975;28;20373;-73
2022/12/08 08:07:42;;;;;;;97.75;49.20;;;;;;;;;;6239444;28;21566;-74
2022/12/08 08:10:42;;;;;;;59.47;33.63;;;;;;;;;;6231146;28;20018;-74
2022/12/08 08:13:42;;;;;;;42.90;21.43;;;;;;;;;;6237530;28;20032;-73
2022/12/08 08:16:45;;;;;;;38.73;20.83;;;;;;;;;;6236824;28;20105;-73
2022/12/08 08:19:45;;;;;;;62.20;36.97;;;;;;;;;;6236081;28;20400;-74
2022/12/08 08:22:46;;;;;;;68.85;38.75;;;;;;;;;;6237620;28;20013;-73
2022/12/08 08:25:46;;;;;;;63.70;37.00;;;;;;;;;;6243055;28;20036;-73
2022/12/08 08:28:47;;;;;;;60.13;36.97;;;;;;;;;;6237565;28;20021;-73
2022/12/08 08:31:47;;;;;;;54.03;31.03;;;;;;;;;;6235594;28;20040;-73
2022/12/08 08:34:47;;;;;;;49.03;25.00;;;;;;;;;;6236915;28;20473;-73
2022/12/08 08:37:47;;;;;;;49.42;29.70;;;;;;;;;;6236593;28;20029;-73
2022/12/08 08:40:47;;;;;;;49.80;27.60;;;;;;;;;;6228137;28;20045;-73
2022/12/08 08:43:48;;;;;;;67.13;46.10;;;;;;;;;;6232196;28;20032;-73
2022/12/08 08:46:48;;;;;;;37.67;20.88;;;;;;;;;;6237695;28;20432;-72
2022/12/08 08:49:48;;;;;;;39.50;20.55;;;;;;;;;;6237220;28;20024;-74
2022/12/08 08:52:49;;;;;;;47.00;29.77;;;;;;;;;;6234422;28;20482;-73
2022/12/08 08:55:49;;;;;;;42.00;26.30;;;;;;;;;;6217800;28;20013;-73
2022/12/08 08:58:50;;;;;;;41.30;23.93;;;;;;;;;;6232115;28;20577;-73
2022/12/08 09:01:51;;;;;;;109.00;54.63;;;;;;;;;;6236684;28;20365;-73
2022/12/08 09:04:51;;;;;;;108.43;47.83;;;;;;;;;;6235844;28;20041;-73
2022/12/08 09:07:51;;;;;;;57.27;35.70;;;;;;;;;;6234901;28;20140;-73
2022/12/08 09:10:52;;;;;;;51.20;31.37;;;;;;;;;;6240178;28;20005;-74
2022/12/08 09:13:53;;;;;;;41.17;24.10;;;;;;;;;;6234745;28;20572;-73
2022/12/08 09:16:53;;;;;;;41.63;27.38;;;;;;;;;;6234150;28;20022;-73
2022/12/08 09:19:53;;;;;;;51.37;28.97;;;;;;;;;;6240706;28;20286;-73
2022/12/08 09:22:53;;;;;;;56.47;31.77;;;;;;;;;;6238877;28;20028;-73
2022/12/08 09:25:54;;;;;;;44.58;29.15;;;;;;;;;;6243815;28;20009;-73
2022/12/08 09:28:55;;;;;;;49.88;27.70;;;;;;;;;;6238055;28;20021;-73
2022/12/08 09:31:55;;;;;;;81.00;37.70;;;;;;;;;;6240109;28;20492;-73
2022/12/08 09:34:55;;;;;;;60.55;33.95;;;;;;;;;;6241451;28;20018;-73
2022/12/08 09:37:55;;;;;;;68.20;45.10;;;;;;;;;;6226507;28;20040;-73
2022/12/08 09:40:56;;;;;;;56.13;33.97;;;;;;;;;;6226311;28;20064;-73
2022/12/08 09:44:04;;;;;;;47.90;29.67;;;;;;;;;;6239924;28;20469;-73
2022/12/08 09:47:11;;;;;;;46.00;25.48;;;;;;;;;;6237671;28;20626;-74
2022/12/08 09:50:35;;;;;;;50.20;28.90;;;;;;;;;;6241438;28;20109;-73
2022/12/08 09:53:42;;;;;;;47.85;26.58;;;;;;;;;;6225355;28;20036;-73
2022/12/08 09:56:42;;;;;;;40.53;22.77;;;;;;;;;;6238442;28;20032;-72
2022/12/08 09:59:46;;;;;;;34.33;21.50;;;;;;;;;;6238734;28;20421;-73
2022/12/08 10:02:46;;;;;;;37.78;25.77;;;;;;;;;;6232640;28;20477;-74
2022/12/08 10:05:57;;;;;;;38.87;23.03;;;;;;;;;;6230438;28;20028;-73
2022/12/08 10:09:12;;;;;;;32.63;21.23;;;;;;;;;;6248320;28;20040;-73
2022/12/08 10:12:29;;;;;;;33.33;18.90;;;;;;;;;;6249304;28;20082;-73
2022/12/08 10:15:39;;;;;;;28.05;17.25;;;;;;;;;;6239524;28;20721;-73
2022/12/08 10:18:40;;;;;;;26.02;16.30;;;;;;;;;;6236464;28;20071;-74
2022/12/08 10:21:40;;;;;;;27.87;16.67;;;;;;;;;;6236626;28;20445;-73
2022/12/08 10:24:42;;;;;;;29.02;15.90;;;;;;;;;;6231644;28;20025;-73
2022/12/08 10:27:43;;;;;;;25.23;15.55;;;;;;;;;;6236863;28;20167;-73
2022/12/08 10:30:43;;;;;;;26.83;15.00;;;;;;;;;;6239293;28;20025;-73
2022/12/08 10:33:44;;;;;;;27.17;13.10;;;;;;;;;;6235140;28;20644;-73
2022/12/08 10:36:45;;;;;;;22.67;13.57;;;;;;;;;;6236952;28;20055;-73
2022/12/08 10:39:46;;;;;;;23.13;13.02;;;;;;;;;;6232856;28;20049;-73
2022/12/08 10:42:47;;;;;;;22.93;11.93;;;;;;;;;;6233093;28;20078;-73
2022/12/08 10:45:48;;;;;;;23.95;12.98;;;;;;;;;;6231739;28;20305;-72
2022/12/08 10:48:50;;;;;;;24.33;14.83;;;;;;;;;;6232052;28;20531;-73
2022/12/08 10:51:50;;;;;;;23.02;13.95;;;;;;;;;;6234720;28;20018;-72
2022/12/08 10:54:53;;;;;;;32.60;14.60;;;;;;;;;;6233851;28;20029;-73
2022/12/08 10:57:54;;;;;;;28.85;15.00;;;;;;;;;;6236449;28;20052;-72
2022/12/08 11:01:17;;;;;;;23.03;14.17;;;;;;;;;;6233959;28;20017;-73
2022/12/08 11:04:22;;;;;;;22.00;12.98;;;;;;;;;;6234137;28;20033;-73
2022/12/08 11:07:22;;;;;;;22.70;12.02;;;;;;;;;;6229888;28;20022;-73
2022/12/08 11:10:33;;;;;;;21.47;12.73;;;;;;;;;;6230203;28;20037;-72
2022/12/08 11:13:39;;;;;;;22.17;12.02;;;;;;;;;;6232999;28;20026;-72
2022/12/08 11:16:41;;;;;;;21.77;11.35;;;;;;;;;;6216724;28;20117;-73
2022/12/08 11:19:53;;;;;;;19.65;12.57;;;;;;;;;;6235942;28;20040;-73
2022/12/08 11:22:54;;;;;;;16.67;10.45;;;;;;;;;;6228836;28;20040;-73
2022/12/08 11:25:57;;;;;;;25.37;13.33;;;;;;;;;;6234289;28;20032;-72
2022/12/08 11:28:57;;;;;;;26.48;13.50;;;;;;;;;;6226316;28;20806;-72
2022/12/08 11:32:00;;;;;;;22.80;12.10;;;;;;;;;;6235005;28;20013;-72
2022/12/08 11:35:05;;;;;;;21.50;11.02;;;;;;;;;;6235615;28;20473;-73
2022/12/08 11:38:10;;;;;;;21.98;11.40;;;;;;;;;;6232193;28;20029;-72
2022/12/08 11:41:13;;;;;;;17.10;9.48;;;;;;;;;;6224898;28;20024;-73
2022/12/08 11:44:24;;;;;;;18.15;10.93;;;;;;;;;;6233127;28;20018;-73
2022/12/08 11:47:27;;;;;;;21.40;10.43;;;;;;;;;;6236074;28;20101;-72
2022/12/08 11:50:29;;;;;;;17.98;9.40;;;;;;;;;;6230005;28;20550;-73
2022/12/08 11:53:50;;;;;;;18.48;10.63;;;;;;;;;;6236076;28;20068;-73
2022/12/08 11:56:52;;;;;;;19.23;10.70;;;;;;;;;;6250697;28;20057;-72
2022/12/08 11:59:55;;;;;;;17.98;8.50;;;;;;;;;;6218597;28;20091;-73
2022/12/08 12:03:03;;;;;;;20.90;11.40;;;;;;;;;;6240240;28;20248;-73
2022/12/08 12:06:36;;;;;;;26.05;13.23;;;;;;;;;;6239794;28;20033;-72
2022/12/08 12:09:39;;;;;;;17.20;9.15;;;;;;;;;;6230634;28;20121;-72
2022/12/08 12:12:58;;;;;;;13.57;7.50;;;;;;;;;;6236366;28;21256;-73
2022/12/08 12:16:16;;;;;;;14.02;8.38;;;;;;;;;;6230952;28;20055;-73
2022/12/08 12:19:18;;;;;;;13.68;7.55;;;;;;;;;;6247543;28;20809;-73
2022/12/08 12:22:20;;;;;;;19.50;9.32;;;;;;;;;;6249786;28;20029;-74
2022/12/08 12:25:22;;;;;;;16.27;8.18;;;;;;;;;;6236221;28;20052;-73
2022/12/08 12:28:24;;;;;;;16.98;9.00;;;;;;;;;;6226988;28;20443;-74
2022/12/08 12:31:32;;;;;;;15.15;8.68;;;;;;;;;;6250420;28;20033;-74
2022/12/08 12:34:53;;;;;;;20.48;9.48;;;;;;;;;;6233255;28;20187;-74
2022/12/08 12:37:56;;;;;;;17.77;10.93;;;;;;;;;;6234602;28;20109;-73
2022/12/08 12:41:00;;;;;;;18.05;8.73;;;;;;;;;;6239145;28;20072;-74
2022/12/08 12:44:13;;;;;;;16.42;8.43;;;;;;;;;;6255014;28;20028;-74
2022/12/08 12:47:33;;;;;;;20.17;13.25;;;;;;;;;;6231339;28;20025;-74
2022/12/08 12:50:33;;;;;;;15.38;8.30;;;;;;;;;;6239122;28;20605;-74
2022/12/08 12:53:45;;;;;;;19.85;8.45;;;;;;;;;;6241052;28;20030;-74
2022/12/08 12:56:50;;;;;;;22.35;11.98;;;;;;;;;;6241718;28;20018;-74
2022/12/08 12:59:53;;;;;;;18.58;10.60;;;;;;;;;;6240336;28;20029;-74
2022/12/08 13:02:55;;;;;;;19.98;10.07;;;;;;;;;;6236088;28;20109;-73
2022/12/08 13:05:55;;;;;;;17.70;9.15;;;;;;;;;;6237009;28;20034;-74
2022/12/08 13:08:55;;;;;;;19.40;9.43;;;;;;;;;;6230115;28;20401;-75
2022/12/08 13:11:58;;;;;;;24.30;12.63;;;;;;;;;;6227675;28;20033;-74
2022/12/08 13:15:01;;;;;;;18.35;10.65;;;;;;;;;;6235463;28;20056;-74
2022/12/08 13:18:02;;;;;;;27.42;12.10;;;;;;;;;;6237776;28;20021;-74
2022/12/08 13:21:03;;;;;;;36.90;14.90;;;;;;;;;;6234077;28;20071;-74
2022/12/08 13:24:13;;;;;;;41.80;21.45;;;;;;;;;;6235380;28;20021;-74
2022/12/08 13:27:27;;;;;;;34.42;15.52;;;;;;;;;;6226009;28;20402;-73
2022/12/08 13:30:41;;;;;;;33.67;14.15;;;;;;;;;;6235010;28;20060;-73
2022/12/08 13:33:41;;;;;;;32.42;16.42;;;;;;;;;;6230699;28;20433;-74
2022/12/08 13:37:02;;;;;;;41.83;18.07;;;;;;;;;;6227618;28;20469;-74
2022/12/08 13:40:13;;;;;;;39.25;17.00;;;;;;;;;;6222142;28;20590;-73
2022/12/08 13:43:25;;;;;;;35.50;16.05;;;;;;;;;;6236789;28;20025;-74
2022/12/08 13:46:32;;;;;;;42.45;19.23;;;;;;;;;;6236360;28;20020;-73
2022/12/08 13:49:35;;;;;;;29.88;13.70;;;;;;;;;;6239397;28;20100;-73
2022/12/08 13:52:37;;;;;;;37.17;17.30;;;;;;;;;;6243774;28;20238;-73
2022/12/08 13:55:37;;;;;;;;;;;;;;;;;;6255753;28;20025;-73
2022/12/08 13:58:38;;;;;;;26.70;14.43;;;;;;;;;;6239465;28;20212;-73
2022/12/08 14:01:42;;;;;;;35.80;16.97;;;;;;;;;;6223437;28;20072;-73
2022/12/08 14:04:43;;;;;;;36.13;17.77;;;;;;;;;;6244019;28;20022;-74
2022/12/08 14:07:45;;;;;;;46.78;22.30;;;;;;;;;;6240454;28;20082;-75
2022/12/08 14:10:52;;;;;;;40.90;23.25;;;;;;;;;;6241939;28;20017;-74
2022/12/08 14:13:52;;;;;;;46.05;22.58;;;;;;;;;;6237526;28;20072;-74
2022/12/08 14:16:54;;;;;;;55.17;25.40;;;;;;;;;;6240459;28;20112;-75
2022/12/08 14:19:59;;;;;;;52.63;27.10;;;;;;;;;;6240429;28;20048;-74
2022/12/08 14:22:59;;;;;;;46.33;23.20;;;;;;;;;;6242902;28;20040;-74
2022/12/08 14:25:59;;;;;;;42.50;22.57;;;;;;;;;;6241056;28;20022;-74
2022/12/08 14:29:00;;;;;;;80.53;43.73;;;;;;;;;;6242955;28;20028;-73
2022/12/08 14:32:00;;;;;;;68.00;39.07;;;;;;;;;;6238942;28;20109;-75
2022/12/08 14:35:00;;;;;;;61.35;38.42;;;;;;;;;;6238623;28;20024;-74
2022/12/08 14:38:02;;;;;;;36.33;20.03;;;;;;;;;;6232116;28;20039;-74
2022/12/08 14:41:04;;;;;;;36.97;19.52;;;;;;;;;;6237345;28;20013;-74
2022/12/08 14:44:19;;;;;;;48.53;28.27;;;;;;;;;;6235045;28;20026;-74
2022/12/08 14:47:20;;;;;;;61.75;32.50;;;;;;;;;;6238295;28;20025;-74
2022/12/08 14:50:35;;;;;;;93.47;51.60;;;;;;;;;;6238205;28;20032;-74
2022/12/08 14:53:40;;;;;;;78.15;34.83;;;;;;;;;;6239030;28;20027;-74
2022/12/08 14:56:51;;;;;;;72.95;35.25;;;;;;;;;;6237310;28;20041;-74
2022/12/08 14:59:51;;;;;;;146.07;67.18;;;;;;;;;;6245409;28;20505;-74
2022/12/08 15:02:52;;;;;;;70.87;33.77;;;;;;;;;;6231411;28;20060;-74
2022/12/08 15:05:54;;;;;;;135.57;64.30;;;;;;;;;;6230080;28;20049;-75
2022/12/08 15:08:59;;;;;;;131.45;61.35;;;;;;;;;;6233001;28;20420;-74
2022/12/08 15:12:20;;;;;;;76.97;32.80;;;;;;;;;;6233641;28;20527;-73
2022/12/08 15:15:21;;;;;;;95.15;48.65;;;;;;;;;;6234089;28;20344;-73
2022/12/08 15:18:34;;;;;;;140.20;78.17;;;;;;;;;;6234155;28;20261;-72
2022/12/08 15:21:36;;;;;;;78.05;44.97;;;;;;;;;;6230872;28;20517;-73
2022/12/08 15:24:36;;;;;;;65.65;39.88;;;;;;;;;;6232527;28;20025;-73
2022/12/08 15:27:37;;;;;;;66.65;37.13;;;;;;;;;;6237503;28;20288;-73
2022/12/08 15:30:37;;;;;;;55.92;34.05;;;;;;;;;;6227632;28;20077;-73
2022/12/08 15:33:37;;;;;;;56.30;37.03;;;;;;;;;;6224021;28;20067;-73
2022/12/08 15:36:38;;;;;;;60.93;38.43;;;;;;;;;;6231973;28;20064;-73
2022/12/08 15:39:38;;;;;;;67.82;39.45;;;;;;;;;;6231141;28;20417;-73
2022/12/08 15:42:39;;;;;;;66.60;35.57;;;;;;;;;;6234856;28;20033;-72
2022/12/08 15:45:39;;;;;;;73.03;40.65;;;;;;;;;;6235886;28;20604;-74
2022/12/08 15:48:39;;;;;;;62.77;36.27;;;;;;;;;;6237221;28;20286;-73
2022/12/08 15:51:39;;;;;;;66.43;39.37;;;;;;;;;;6224035;28;20274;-74
2022/12/08 15:54:39;;;;;;;81.57;46.80;;;;;;;;;;6219714;28;20068;-74
2022/12/08 15:57:43;;;;;;;73.37;46.93;;;;;;;;;;6226671;28;20037;-74
2022/12/08 16:00:43;;;;;;;89.38;50.38;;;;;;;;;;6229552;28;20018;-74
2022/12/08 16:03:44;;;;;;;92.67;48.43;;;;;;;;;;6236558;28;20025;-74
2022/12/08 16:06:47;;;;;;;92.73;51.70;;;;;;;;;;6236883;28;20064;-74
2022/12/08 16:09:48;;;;;;;85.30;46.10;;;;;;;;;;6221323;28;20161;-74
2022/12/08 16:16:10;;;;;;;68.18;39.95;;;;;;;;;;6235438;28;20029;-74
2022/12/08 16:19:12;;;;;;;48.40;28.20;;;;;;;;;;6232482;28;20029;-74
2022/12/08 16:22:17;;;;;;;52.97;28.13;;;;;;;;;;6230704;28;20090;-73
2022/12/08 16:25:18;;;;;;;52.10;29.17;;;;;;;;;;6235578;28;20314;-74
2022/12/08 16:28:19;;;;;;;45.23;25.90;;;;;;;;;;6228657;28;20096;-74
2022/12/08 16:31:19;;;;;;;41.83;24.25;;;;;;;;;;6225186;28;20026;-74
2022/12/08 16:34:19;;;;;;;41.42;22.95;;;;;;;;;;6225096;28;20091;-73
2022/12/08 16:37:21;;;;;;;31.73;19.02;;;;;;;;;;6225271;28;20473;-74
2022/12/08 16:40:21;;;;;;;39.17;21.85;;;;;;;;;;6230759;28;20389;-74
2022/12/08 16:43:21;;;;;;;36.87;21.47;;;;;;;;;;6233515;28;20026;-74
2022/12/08 16:46:24;;;;;;;39.73;20.07;;;;;;;;;;6232592;28;20071;-74
2022/12/08 16:49:24;;;;;;;35.28;20.27;;;;;;;;;;6232118;28;20018;-73
2022/12/08 16:52:25;;;;;;;37.33;18.77;;;;;;;;;;6237472;28;20155;-74
2022/12/08 16:55:25;;;;;;;36.03;18.57;;;;;;;;;;6230828;28;20105;-74
2022/12/08 16:58:25;;;;;;;37.00;16.70;;;;;;;;;;6233757;28;20034;-74
2022/12/08 17:01:25;;;;;;;29.53;16.47;;;;;;;;;;6231110;28;20512;-74
2022/12/08 17:04:26;;;;;;;28.17;16.43;;;;;;;;;;6227957;28;20515;-74
2022/12/08 17:07:26;;;;;;;36.20;20.60;;;;;;;;;;6229713;28;20520;-74
2022/12/08 17:10:28;;;;;;;37.93;19.13;;;;;;;;;;6227667;28;20010;-74
2022/12/08 17:13:28;;;;;;;;;;;;;;;;;;6227792;28;20041;-73
2022/12/08 17:16:28;;;;;;;45.55;24.60;;;;;;;;;;6218480;28;20298;-74
2022/12/08 17:19:28;;;;;;;42.33;23.83;;;;;;;;;;6223460;28;20034;-74
2022/12/08 17:22:29;;;;;;;71.25;36.00;;;;;;;;;;6222280;28;20266;-74
2022/12/08 17:25:29;;;;;;;74.37;39.87;;;;;;;;;;6226183;28;20056;-74
2022/12/08 17:28:29;;;;;;;95.50;44.37;;;;;;;;;;6224658;28;20028;-74
2022/12/08 17:31:30;;;;;;;92.00;47.53;;;;;;;;;;6219943;28;20449;-73
2022/12/08 17:34:31;;;;;;;87.23;45.60;;;;;;;;;;6225344;28;20028;-73
2022/12/08 17:37:31;;;;;;;123.67;65.83;;;;;;;;;;6223292;28;20049;-75
2022/12/08 17:40:31;;;;;;;103.07;55.07;;;;;;;;;;6234113;28;20037;-74
2022/12/08 17:43:32;;;;;;;75.55;41.00;;;;;;;;;;6238379;28;20029;-73
2022/12/08 17:46:32;;;;;;;98.30;45.67;;;;;;;;;;6226937;28;20401;-73
2022/12/08 17:49:32;;;;;;;88.23;46.53;;;;;;;;;;6235329;28;20013;-72
2022/12/08 17:52:33;;;;;;;88.07;44.67;;;;;;;;;;6234772;28;20046;-72